Time;durP1;ratioP1;P1;durP2;ratioP2;P2;SDS_P1;SDS_P2;PMS_P1;PMS_P2;Temp;Humidity;BMP_temperature;BMP_pressure;BME280_temperature;BME280_humidity;BME280_pressure;Samples;Min_cycle;Max_cycle;Signal;HPM_P1;HPM_P2
2023/04/10 00:01:58;;;;;;;;;6.50;4.50;;;;;19.41;35.51;101278.13;5077061;27;45223;-70
2023/04/10 00:04:23;;;;;;;;;4.00;4.00;;;;;19.40;35.35;101275.56;5073413;28;58303;-70
2023/04/10 00:06:48;;;;;;;;;5.00;5.00;;;;;19.39;35.45;101274.72;5074004;27;45316;-70
2023/04/10 00:09:14;;;;;;;;;8.00;5.00;;;;;19.40;35.19;101279.06;5065709;27;67921;-70
2023/04/10 00:11:39;;;;;;;;;5.25;4.50;;;;;19.38;35.27;101273.00;5068882;28;45364;-70
2023/04/10 00:14:04;;;;;;;;;5.75;5.50;;;;;19.39;35.25;101265.88;5074072;28;69077;-70
2023/04/10 00:16:30;;;;;;;;;5.75;5.75;;;;;19.40;35.64;101270.25;5078718;27;45596;-70
2023/04/10 00:18:55;;;;;;;;;6.50;5.00;;;;;19.40;35.23;101262.28;5060570;27;47377;-70
2023/04/10 00:21:20;;;;;;;;;6.25;5.00;;;;;19.39;35.29;101265.88;5060656;27;67572;-70
2023/04/10 00:23:46;;;;;;;;;6.50;5.50;;;;;19.39;35.16;101260.56;5064129;27;45352;-70
2023/04/10 00:26:11;;;;;;;;;6.00;4.00;;;;;19.38;35.18;101258.88;5075627;27;64087;-70
2023/04/10 00:28:37;;;;;;;;;5.25;5.00;;;;;19.39;35.72;101257.91;5058661;27;46585;-70
2023/04/10 00:31:05;;;;;;;;;4.00;4.00;;;;;19.38;35.17;101251.75;5084856;27;45441;-70
2023/04/10 00:33:31;;;;;;;;;9.00;6.00;;;;;19.40;35.31;101259.63;5067922;27;45349;-70
2023/04/10 00:35:56;;;;;;;;;5.00;4.25;;;;;19.38;35.28;101254.41;5069455;28;63429;-70
2023/04/10 00:38:21;;;;;;;;;4.50;4.25;;;;;19.37;35.46;101234.13;5062452;27;49146;-70
2023/04/10 00:40:47;;;;;;;;;4.75;4.00;;;;;19.37;35.59;101235.91;5070049;27;45384;-70
2023/04/10 00:43:12;;;;;;;;;7.00;6.00;;;;;19.37;35.51;101233.25;5083685;27;63784;-70
2023/04/10 00:45:38;;;;;;;;;7.25;5.00;;;;;19.39;35.11;101231.38;5075120;27;45509;-70
2023/04/10 00:48:03;;;;;;;;;4.25;4.00;;;;;19.38;35.43;101230.53;5073353;27;71878;-70
2023/04/10 00:50:29;;;;;;;;;6.00;4.50;;;;;19.38;35.29;101225.22;5068164;28;45627;-70
2023/04/10 00:52:56;;;;;;;;;5.75;4.75;;;;;19.35;35.25;101220.94;5091824;27;45829;-70
2023/04/10 00:55:22;;;;;;;;;4.00;4.00;;;;;19.36;35.44;101219.16;5079990;27;45482;-70
2023/04/10 00:57:47;;;;;;;;;5.50;4.50;;;;;19.38;35.43;101217.25;5098429;27;70406;-70
2023/04/10 01:00:14;;;;;;;;;7.00;5.00;;;;;19.37;35.36;101217.34;5084016;27;45284;-70
2023/04/10 01:02:39;;;;;;;;;5.25;5.00;;;;;19.37;35.50;101212.91;5061400;27;45200;-70
2023/04/10 01:05:05;;;;;;;;;5.75;4.25;;;;;19.38;35.05;101211.94;5099024;27;45220;-70
2023/04/10 01:07:53;;;;;;;;;6.00;4.00;;;;;19.35;35.69;101204.16;5061489;27;48061;-70
2023/04/10 01:10:28;;;;;;;;;4.75;4.00;;;;;19.38;35.34;101206.63;5068509;28;45288;-70
2023/04/10 01:13:10;;;;;;;;;5.00;5.00;;;;;19.34;35.63;101203.31;5088887;27;45234;-70
2023/04/10 01:15:47;;;;;;;;;3.75;3.75;;;;;19.35;35.50;101198.84;5057422;27;45488;-70
2023/04/10 01:18:24;;;;;;;;;6.00;5.00;;;;;19.35;35.50;101197.06;5074345;28;47298;-70
2023/04/10 01:20:49;;;;;;;;;8.25;5.75;;;;;19.35;35.44;101197.06;5070773;27;45775;-70
2023/04/10 01:23:38;;;;;;;;;5.00;4.00;;;;;19.36;35.28;101197.91;5080010;27;45334;-70
2023/04/10 01:26:05;;;;;;;;;6.00;4.00;;;;;19.33;35.22;101193.63;5084000;27;45902;-70
2023/04/10 01:28:50;;;;;;;;;4.00;4.00;;;;;19.36;35.53;101197.91;5074149;27;46454;-70
2023/04/10 01:31:20;;;;;;;;;4.50;4.50;;;;;19.34;35.51;101198.00;5077688;27;45280;-70
2023/04/10 01:33:49;;;;;;;;;4.50;3.75;;;;;19.34;35.29;101192.69;5083859;27;45484;-70
2023/04/10 01:36:20;;;;;;;;;11.00;5.75;;;;;19.32;35.55;101188.41;5061260;28;45653;-70
2023/04/10 01:38:47;;;;;;;;;7.50;5.25;;;;;19.32;35.39;101186.63;5078159;27;45360;-70
2023/04/10 01:41:12;;;;;;;;;5.75;4.50;;;;;19.33;35.38;101188.31;5073908;27;63133;-70
2023/04/10 01:43:39;;;;;;;;;5.50;5.50;;;;;19.36;35.39;101189.94;5079338;27;55704;-70
2023/04/10 01:46:05;;;;;;;;;4.25;4.25;;;;;19.33;35.31;101180.34;5073897;27;71025;-70
2023/04/10 01:48:30;;;;;;;;;4.50;3.00;;;;;19.32;35.44;101173.34;5068533;27;45434;-70
2023/04/10 01:50:56;;;;;;;;;4.00;4.00;;;;;19.35;35.27;101182.91;5076273;28;66177;-70
2023/04/10 01:53:22;;;;;;;;;8.25;4.00;;;;;19.29;35.56;101170.00;5080826;27;63484;-70
2023/04/10 01:55:49;;;;;;;;;4.00;3.25;;;;;19.34;35.78;101178.56;5066283;27;45421;-70
2023/04/10 01:58:14;;;;;;;;;5.25;4.50;;;;;19.33;35.34;101177.69;5077485;27;46166;-70
2023/04/10 02:00:41;;;;;;;;;6.75;5.00;;;;;19.33;35.44;101177.69;5074377;27;70044;-70
2023/04/10 02:03:07;;;;;;;;;5.50;4.00;;;;;19.33;35.25;101168.88;5074807;27;45444;-70
2023/04/10 02:05:50;;;;;;;;;5.00;4.75;;;;;19.35;35.22;101172.31;5082468;27;45531;-70
2023/04/10 02:08:23;;;;;;;;;6.75;5.00;;;;;19.31;35.49;101168.97;5095402;27;45414;-70
2023/04/10 02:11:11;;;;;;;;;6.00;4.00;;;;;19.33;35.50;101161.75;5061997;27;45242;-70
2023/04/10 02:13:38;;;;;;;;;9.25;6.00;;;;;19.33;35.36;101161.75;5075556;27;45338;-70
2023/04/10 02:16:06;;;;;;;;;4.75;4.75;;;;;19.33;35.53;101158.25;5060054;27;66970;-70
2023/04/10 02:18:34;;;;;;;;;7.75;4.50;;;;;19.33;35.64;101166.22;5060602;28;48158;-70
2023/04/10 02:21:00;;;;;;;;;4.75;4.75;;;;;19.33;35.22;101155.63;5067811;27;45535;-70
2023/04/10 02:23:25;;;;;;;;;5.00;4.00;;;;;19.33;35.61;101156.47;5057896;27;45410;-70
2023/04/10 02:25:51;;;;;;;;;6.25;5.00;;;;;19.34;35.45;101150.22;5065823;27;69134;-70
2023/04/10 02:28:16;;;;;;;;;7.75;6.00;;;;;19.31;35.44;101155.69;5066603;27;45375;-70
2023/04/10 02:30:41;;;;;;;;;5.75;5.75;;;;;19.33;35.44;101153.81;5081720;27;45453;-70
2023/04/10 02:33:07;;;;;;;;;5.25;5.25;;;;;19.33;35.44;101150.31;5068268;27;45488;-70
2023/04/10 02:35:33;;;;;;;;;6.00;3.75;;;;;19.31;35.31;101146.88;5064884;28;45293;-70
2023/04/10 02:37:58;;;;;;;;;4.00;4.00;;;;;19.31;35.84;101139.78;5064683;28;48064;-70
2023/04/10 02:40:24;;;;;;;;;6.00;5.00;;;;;19.31;35.60;101137.13;5084585;27;64029;-70
2023/04/10 02:42:49;;;;;;;;;4.75;4.50;;;;;19.32;35.51;101138.84;5065977;27;45203;-70
2023/04/10 02:45:15;;;;;;;;;6.75;4.25;;;;;19.30;35.36;101130.13;5064403;27;45906;-70
2023/04/10 02:47:40;;;;;;;;;4.75;4.00;;;;;19.31;35.32;101131.81;5073272;27;74867;-70
2023/04/10 02:50:06;;;;;;;;;4.25;4.25;;;;;19.31;35.62;101129.16;5093992;27;65093;-70
2023/04/10 02:52:31;;;;;;;;;6.00;4.00;;;;;19.30;35.46;101127.47;5077710;27;45439;-70
2023/04/10 02:54:56;;;;;;;;;4.75;4.75;;;;;19.29;35.74;101127.56;5073755;28;53939;-70
2023/04/10 02:57:22;;;;;;;;;9.50;5.25;;;;;19.30;35.36;101119.50;5061354;28;68632;-70
2023/04/10 02:59:50;;;;;;;;;5.50;4.00;;;;;19.30;35.28;101115.97;5055132;28;62169;-70
2023/04/10 03:02:16;;;;;;;;;5.00;5.00;;;;;19.30;35.29;101114.19;5065815;27;45501;-70
2023/04/10 03:04:41;;;;;;;;;6.25;4.25;;;;;19.30;35.53;101116.84;5077264;27;45186;-70
2023/04/10 03:07:07;;;;;;;;;5.00;5.00;;;;;19.31;35.47;101117.69;5060577;27;60925;-70
2023/04/10 03:09:33;;;;;;;;;4.75;4.00;;;;;19.31;35.44;101117.69;5057325;28;45929;-70
2023/04/10 03:11:58;;;;;;;;;6.00;5.00;;;;;19.29;35.67;101112.47;5065908;28;63117;-70
2023/04/10 03:14:24;;;;;;;;;3.25;3.00;;;;;19.30;35.38;101108.91;5073143;28;45563;-70
2023/04/10 03:16:49;;;;;;;;;6.00;5.00;;;;;19.28;35.33;101107.25;5063183;27;53949;-70
2023/04/10 03:19:15;;;;;;;;;4.00;4.00;;;;;19.31;35.52;101107.09;5090762;27;45375;-70
2023/04/10 03:21:41;;;;;;;;;6.25;5.00;;;;;19.30;35.50;101097.41;5082462;27;45278;-70
2023/04/10 03:24:06;;;;;;;;;6.75;4.00;;;;;19.31;35.47;101099.13;5072135;27;45284;-70
2023/04/10 03:26:31;;;;;;;;;5.50;4.25;;;;;19.30;35.68;101094.75;5065549;27;45563;-70
2023/04/10 03:28:57;;;;;;;;;6.00;5.25;;;;;19.31;35.32;101096.47;5067282;27;45364;-70
2023/04/10 03:31:22;;;;;;;;;4.75;4.75;;;;;19.28;35.23;101097.50;5085805;27;64596;-70
2023/04/10 03:33:47;;;;;;;;;4.00;4.00;;;;;19.29;35.57;101087.75;5058607;27;46325;-70
2023/04/10 03:36:13;;;;;;;;;6.25;3.00;;;;;19.29;35.45;101099.22;5071209;27;73455;-70
2023/04/10 03:38:38;;;;;;;;;7.25;6.00;;;;;19.28;35.34;101089.56;5081535;27;45348;-70
2023/04/10 03:41:04;;;;;;;;;4.00;4.00;;;;;19.29;35.30;101087.75;5053265;27;45458;-70
2023/04/10 03:43:30;;;;;;;;;4.00;4.00;;;;;19.29;35.48;101093.91;5068293;27;45591;-70
2023/04/10 03:45:55;;;;;;;;;4.75;4.00;;;;;19.27;35.40;101093.13;5052699;28;46968;-70
2023/04/10 03:48:20;;;;;;;;;5.25;4.00;;;;;19.28;35.53;101091.34;5082843;27;63712;-71
2023/04/10 03:50:46;;;;;;;;;4.25;3.00;;;;;19.27;35.53;101089.63;5093930;27;54597;-70
2023/04/10 03:53:11;;;;;;;;;4.75;3.00;;;;;19.26;35.55;101080.81;5078111;27;45332;-70
2023/04/10 03:55:37;;;;;;;;;5.75;4.00;;;;;19.28;35.56;101072.75;5094304;27;69765;-70
2023/04/10 03:58:03;;;;;;;;;4.75;4.75;;;;;19.29;35.34;101077.13;5076759;27;45300;-70
2023/04/10 04:00:28;;;;;;;;;5.75;4.50;;;;;19.26;35.32;101070.19;5079966;27;45489;-70
2023/04/10 04:02:54;;;;;;;;;5.25;5.25;;;;;19.26;35.19;101064.03;5063513;27;61885;-70
2023/04/10 04:05:19;;;;;;;;;4.50;4.50;;;;;19.28;35.75;101075.41;5087980;27;45561;-70
2023/04/10 04:07:44;;;;;;;;;4.25;4.25;;;;;19.26;35.47;101064.03;5062499;27;45274;-70
2023/04/10 04:10:10;;;;;;;;;4.00;4.00;;;;;19.28;35.48;101065.66;5075253;27;45334;-70
2023/04/10 04:12:35;;;;;;;;;5.00;5.00;;;;;19.27;35.38;101065.75;5079855;27;63907;-70
2023/04/10 04:15:01;;;;;;;;;5.00;5.00;;;;;19.28;35.61;101072.75;5068493;28;73127;-70
2023/04/10 04:17:26;;;;;;;;;4.25;4.25;;;;;19.27;35.32;101073.72;5090104;27;45282;-70
2023/04/10 04:19:51;;;;;;;;;5.00;4.25;;;;;19.28;35.51;101073.63;5078743;27;61427;-70
2023/04/10 04:22:17;;;;;;;;;4.75;4.75;;;;;19.26;35.47;101072.84;5058203;27;54820;-70
2023/04/10 04:24:42;;;;;;;;;6.25;5.00;;;;;19.26;35.63;101078.16;5073131;27;46365;-70
2023/04/10 04:27:08;;;;;;;;;4.75;4.00;;;;;19.26;35.33;101082.59;5094844;27;72275;-70
2023/04/10 04:29:33;;;;;;;;;4.75;4.75;;;;;19.26;35.40;101086.09;5067239;27;45370;-70
2023/04/10 04:31:58;;;;;;;;;4.25;4.25;;;;;19.24;35.49;101080.03;5075991;27;65984;-70
2023/04/10 04:34:24;;;;;;;;;5.00;4.00;;;;;19.25;35.47;101088.88;5063519;28;74206;-70
2023/04/10 04:36:49;;;;;;;;;5.50;4.00;;;;;19.27;35.64;101087.84;5087096;27;45379;-71
2023/04/10 04:39:14;;;;;;;;;4.50;4.00;;;;;19.26;35.46;101075.50;5097312;27;45446;-70
2023/04/10 04:41:40;;;;;;;;;4.75;3.00;;;;;19.24;35.51;101073.88;5095688;27;45312;-70
2023/04/10 04:44:05;;;;;;;;;4.00;3.75;;;;;19.26;35.54;101087.91;5096335;27;69915;-70
2023/04/10 04:46:31;;;;;;;;;4.25;4.25;;;;;19.25;35.23;101086.22;5060703;27;45321;-70
2023/04/10 04:48:56;;;;;;;;;6.00;5.00;;;;;19.22;35.38;101087.25;5088491;27;45284;-70
2023/04/10 04:51:21;;;;;;;;;4.75;4.75;;;;;19.22;35.49;101081.94;5075721;27;45396;-70
2023/04/10 04:53:47;;;;;;;;;6.00;5.50;;;;;19.24;35.75;101082.69;5073212;27;46522;-70
2023/04/10 04:56:12;;;;;;;;;3.50;3.50;;;;;19.25;35.56;101084.41;5085936;27;74196;-70
2023/04/10 04:58:38;;;;;;;;;6.00;6.00;;;;;19.25;35.33;101088.88;5084153;27;45346;-70
2023/04/10 05:01:03;;;;;;;;;4.00;3.75;;;;;19.24;35.36;101085.34;5078499;27;50175;-70
2023/04/10 05:03:29;;;;;;;;;4.25;3.75;;;;;19.24;35.81;101097.78;5072515;27;46454;-70
2023/04/10 05:05:54;;;;;;;;;4.00;4.00;;;;;19.21;35.30;101088.19;5080886;27;55011;-70
2023/04/10 05:08:20;;;;;;;;;5.00;5.00;;;;;19.23;35.57;101088.09;5068948;28;45309;-70
2023/04/10 05:10:45;;;;;;;;;4.50;4.50;;;;;19.23;35.59;101085.44;5076150;27;45525;-70
2023/04/10 05:13:11;;;;;;;;;7.00;5.25;;;;;19.23;35.51;101083.66;5079469;27;71790;-70
2023/04/10 05:15:36;;;;;;;;;4.50;4.50;;;;;19.24;35.59;101084.50;5068954;27;45288;-70
2023/04/10 05:18:01;;;;;;;;;4.25;4.00;;;;;19.23;35.30;101086.31;5084425;27;45249;-70
2023/04/10 05:20:27;;;;;;;;;5.50;4.25;;;;;19.23;35.29;101088.09;5066345;27;68552;-70
2023/04/10 05:22:52;;;;;;;;;3.75;3.75;;;;;19.23;35.72;101085.44;5089750;27;45174;-70
2023/04/10 05:25:18;;;;;;;;;4.00;4.00;;;;;19.21;35.58;101082.91;5102416;27;45215;-70
2023/04/10 05:27:43;;;;;;;;;7.00;4.00;;;;;19.24;35.45;101092.47;5075635;27;45425;-70
2023/04/10 05:30:09;;;;;;;;;6.25;4.25;;;;;19.23;35.62;101088.97;5102270;27;45621;-70
2023/04/10 05:32:34;;;;;;;;;5.50;4.00;;;;;19.21;35.36;101092.63;5067075;27;47233;-70
2023/04/10 05:34:59;;;;;;;;;5.00;3.75;;;;;19.23;35.22;101104.00;5094047;27;65375;-70
2023/04/10 05:37:25;;;;;;;;;4.00;4.00;;;;;19.23;35.45;101098.69;5082725;27;61736;-70
2023/04/10 05:39:50;;;;;;;;;5.50;5.00;;;;;19.21;35.51;101103.25;5060841;27;72431;-70
2023/04/10 05:42:15;;;;;;;;;5.00;5.00;;;;;19.20;35.43;101106.84;5075497;27;45447;-70
2023/04/10 05:44:41;;;;;;;;;5.50;4.25;;;;;19.21;35.59;101103.25;5099705;27;65259;-70
2023/04/10 05:47:06;;;;;;;;;5.75;5.00;;;;;19.22;35.63;101099.66;5078300;27;60138;-70
2023/04/10 05:49:32;;;;;;;;;5.00;4.00;;;;;19.21;35.59;101096.16;5072527;27;45310;-70
2023/04/10 05:51:57;;;;;;;;;6.00;5.00;;;;;19.22;35.82;101094.34;5077920;27;46871;-70
2023/04/10 05:54:23;;;;;;;;;6.50;5.00;;;;;19.21;35.65;101090.84;5083493;27;45299;-70
2023/04/10 05:56:48;;;;;;;;;7.75;4.75;;;;;19.22;35.30;101087.25;5072470;27;55842;-70
2023/04/10 05:59:14;;;;;;;;;5.50;5.50;;;;;19.22;35.66;101095.19;5083513;27;45462;-70
2023/04/10 06:01:39;;;;;;;;;3.50;3.50;;;;;19.20;35.60;101091.78;5079618;27;48034;-70
2023/04/10 06:04:05;;;;;;;;;4.00;4.00;;;;;19.20;35.47;101097.09;5056817;27;45251;-70
2023/04/10 06:06:31;;;;;;;;;5.50;5.50;;;;;19.19;35.56;101087.41;5096413;27;45212;-70
2023/04/10 06:08:57;;;;;;;;;5.00;5.00;;;;;19.23;35.51;101098.69;5083367;27;45372;-70
2023/04/10 06:11:22;;;;;;;;;6.00;6.00;;;;;19.21;35.37;101095.28;5081421;27;45366;-70
2023/04/10 06:13:47;;;;;;;;;6.75;4.00;;;;;19.21;35.47;101096.16;5062601;28;60253;-70
2023/04/10 06:16:15;;;;;;;;;4.75;4.75;;;;;19.19;35.54;101099.81;5068790;27;65860;-70
2023/04/10 06:18:41;;;;;;;;;7.00;6.75;;;;;19.20;35.64;101104.19;5080846;27;45554;-70
2023/04/10 06:21:07;;;;;;;;;6.25;6.25;;;;;19.20;35.45;101106.84;5063544;27;47047;-70
2023/04/10 06:23:32;;;;;;;;;6.25;5.00;;;;;19.20;35.36;101105.06;5066693;28;67886;-70
2023/04/10 06:25:57;;;;;;;;;7.00;5.00;;;;;19.19;35.45;101107.78;5073234;27;62876;-70
2023/04/10 06:28:23;;;;;;;;;6.00;5.75;;;;;19.22;35.47;101115.59;5063180;27;45480;-70
2023/04/10 06:30:48;;;;;;;;;5.75;4.00;;;;;19.19;35.83;101113.09;5063988;27;69800;-70
2023/04/10 06:33:15;;;;;;;;;9.25;6.00;;;;;19.20;35.43;101115.66;5070114;27;58698;-70
2023/04/10 06:35:40;;;;;;;;;5.00;5.00;;;;;19.18;35.47;101112.25;5070331;27;45474;-71
2023/04/10 06:38:06;;;;;;;;;5.50;4.75;;;;;19.20;35.75;101115.66;5080047;27;45485;-71
2023/04/10 06:40:32;;;;;;;;;4.50;4.00;;;;;19.20;35.36;101113.00;5067476;27;70043;-71
2023/04/10 06:42:58;;;;;;;;;6.25;5.75;;;;;19.17;35.63;101105.22;5075792;27;45457;-71
2023/04/10 06:45:23;;;;;;;;;10.00;6.50;;;;;19.18;35.59;101109.59;5077011;27;45290;-70
2023/04/10 06:47:49;;;;;;;;;3.25;3.25;;;;;19.20;35.42;101114.81;5070001;27;65389;-71
2023/04/10 06:50:15;;;;;;;;;5.00;5.00;;;;;19.19;35.44;101097.19;5062724;27;47156;-70
2023/04/10 06:52:40;;;;;;;;;5.75;4.00;;;;;19.19;35.58;101099.81;5080815;27;45339;-70
2023/04/10 06:55:06;;;;;;;;;5.75;4.00;;;;;19.19;35.48;101091.88;5086554;27;45335;-71
2023/04/10 06:57:31;;;;;;;;;5.75;5.00;;;;;19.20;35.23;101083.81;5085269;27;45241;-71
2023/04/10 06:59:57;;;;;;;;;7.00;4.75;;;;;19.20;35.78;101083.81;5072016;27;72595;-71
2023/04/10 07:02:22;;;;;;;;;5.00;5.00;;;;;19.20;35.62;101077.66;5062474;28;45427;-71
2023/04/10 07:04:47;;;;;;;;;6.50;6.00;;;;;19.19;35.64;101086.56;5073765;27;45352;-69
2023/04/10 07:07:14;;;;;;;;;6.25;5.00;;;;;19.18;35.62;101076.91;5082551;27;45366;-68
2023/04/10 07:09:40;;;;;;;;;5.00;4.00;;;;;19.19;35.72;101082.09;5069631;27;46061;-68
2023/04/10 07:12:06;;;;;;;;;6.75;5.50;;;;;19.19;35.53;101076.78;5065581;27;45202;-69
2023/04/10 07:14:33;;;;;;;;;5.00;5.00;;;;;19.21;35.69;101080.25;5077460;27;45202;-69
2023/04/10 07:16:58;;;;;;;;;5.25;5.25;;;;;19.18;35.63;101068.94;5058055;28;45327;-69
2023/04/10 07:19:24;;;;;;;;;5.25;5.00;;;;;19.18;35.75;101067.16;5093866;27;69058;-69
2023/04/10 07:21:50;;;;;;;;;5.00;5.00;;;;;19.20;35.72;101073.22;5067199;28;45370;-68
2023/04/10 07:24:16;;;;;;;;;6.50;5.00;;;;;19.20;35.40;101072.38;5089461;27;45504;-69
2023/04/10 07:26:43;;;;;;;;;4.00;4.00;;;;;19.21;35.61;101066.09;5068858;27;45343;-69
2023/04/10 07:29:08;;;;;;;;;5.75;4.75;;;;;19.20;35.62;101061.75;5064702;27;46854;-68
2023/04/10 07:31:34;;;;;;;;;7.00;6.00;;;;;19.15;35.25;101044.28;5094361;27;45346;-68
2023/04/10 07:33:59;;;;;;;;;5.75;5.25;;;;;19.21;35.51;101052.84;5081941;27;45462;-69
2023/04/10 07:36:25;;;;;;;;;5.50;5.50;;;;;19.20;35.44;101040.53;5082419;27;45442;-68
2023/04/10 07:38:51;;;;;;;;;7.50;4.50;;;;;19.18;35.66;101051.22;5084594;27;45399;-69
2023/04/10 07:41:16;;;;;;;;;8.00;5.00;;;;;19.21;35.64;101050.19;5082220;27;45224;-69
2023/04/10 07:43:42;;;;;;;;;5.50;5.00;;;;;19.19;35.53;101050.25;5064412;27;45288;-68
2023/04/10 07:46:07;;;;;;;;;4.00;4.00;;;;;19.21;35.67;101055.47;5098059;27;48937;-68
2023/04/10 07:48:32;;;;;;;;;5.25;5.25;;;;;19.20;35.82;101053.78;5075409;27;46287;-68
2023/04/10 07:50:58;;;;;;;;;5.50;4.00;;;;;19.18;35.71;101045.91;5099567;27;67510;-68
2023/04/10 07:53:23;;;;;;;;;6.75;4.00;;;;;19.21;35.43;101053.72;5059592;27;71305;-69
2023/04/10 07:55:49;;;;;;;;;4.75;4.75;;;;;19.14;35.54;101039.94;5077255;27;61174;-68
2023/04/10 07:58:15;;;;;;;;;7.00;4.00;;;;;19.21;35.69;101037.78;5076716;27;45749;-68
2023/04/10 08:00:40;;;;;;;;;6.75;6.00;;;;;19.23;35.51;101035.91;5067190;28;45878;-68
2023/04/10 08:03:06;;;;;;;;;7.50;4.25;;;;;19.21;35.54;101032.47;5076081;27;45374;-69
2023/04/10 08:05:31;;;;;;;;;5.75;5.00;;;;;19.21;35.58;101034.25;5077697;27;45355;-68
2023/04/10 08:07:57;;;;;;;;;6.25;5.00;;;;;19.21;35.77;101040.44;5067588;27;46519;-68
2023/04/10 08:10:22;;;;;;;;;5.75;5.00;;;;;19.22;35.73;101050.09;5069685;28;45451;-68
2023/04/10 08:12:48;;;;;;;;;6.25;5.00;;;;;19.22;35.61;101047.44;5092769;27;56524;-68
2023/04/10 08:15:13;;;;;;;;;7.00;4.50;;;;;19.23;35.74;101058.91;5073992;28;66433;-68
2023/04/10 08:17:38;;;;;;;;;5.50;5.50;;;;;19.22;35.90;101063.34;5097817;27;50579;-70
2023/04/10 08:20:05;;;;;;;;;5.75;4.00;;;;;19.23;35.54;101064.19;5080694;27;68821;-68
2023/04/10 08:22:30;;;;;;;;;5.00;5.00;;;;;19.24;35.66;101068.59;5081404;27;45320;-68
2023/04/10 08:24:56;;;;;;;;;5.25;5.25;;;;;19.22;35.50;101065.16;5083114;27;45372;-68
2023/04/10 08:27:21;;;;;;;;;5.00;3.25;;;;;19.21;35.77;101060.78;5068471;27;75323;-70
2023/04/10 08:29:46;;;;;;;;;5.75;5.75;;;;;19.23;35.60;101053.59;5073421;27;45265;-71
2023/04/10 08:32:12;;;;;;;;;9.00;5.25;;;;;19.24;35.82;101053.50;5098524;27;65829;-70
2023/04/10 08:34:37;;;;;;;;;4.00;4.00;;;;;19.23;35.50;101054.47;5052375;28;70712;-70
2023/04/10 08:37:06;;;;;;;;;4.75;4.75;;;;;19.25;35.89;101051.72;5070723;27;45375;-70
2023/04/10 08:39:37;;;;;;;;;4.75;4.75;;;;;19.21;35.83;101048.41;5081666;27;45481;-70
2023/04/10 08:42:02;;;;;;;;;4.25;4.25;;;;;19.22;35.73;101054.56;5089781;27;45264;-70
2023/04/10 08:44:28;;;;;;;;;3.50;3.25;;;;;19.22;35.72;101050.09;5069100;27;45387;-70
2023/04/10 08:46:57;;;;;;;;;4.00;4.00;;;;;19.23;35.51;101054.47;5070920;28;49095;-68
2023/04/10 08:49:39;;;;;;;;;6.50;4.75;;;;;19.24;35.79;101061.47;5069846;28;45869;-68
2023/04/10 08:52:13;;;;;;;;;8.00;5.00;;;;;19.23;35.89;101065.09;5062047;27;45503;-68
2023/04/10 08:54:40;;;;;;;;;7.50;5.75;;;;;19.24;35.68;101055.31;5066667;27;45240;-68
2023/04/10 08:57:06;;;;;;;;;5.00;4.00;;;;;19.23;35.74;101058.91;5068578;27;70246;-68
2023/04/10 08:59:31;;;;;;;;;5.00;5.00;;;;;19.27;35.82;101065.75;5069821;27;45545;-68
2023/04/10 09:01:57;;;;;;;;;6.00;6.00;;;;;19.27;35.64;101060.44;5064343;27;45453;-68
2023/04/10 09:04:24;;;;;;;;;8.75;5.00;;;;;19.26;35.76;101059.56;5071016;27;45447;-68
2023/04/10 09:06:49;;;;;;;;;5.50;5.50;;;;;19.25;35.59;101052.56;5063843;28;47697;-69
2023/04/10 09:09:15;;;;;;;;;10.25;5.00;;;;;19.25;35.71;101054.38;5078841;27;45307;-69
2023/04/10 09:11:55;;;;;;;;;6.50;5.75;;;;;19.26;35.79;101053.41;5062555;27;45537;-70
2023/04/10 09:14:22;;;;;;;;;6.00;4.75;;;;;19.25;35.89;101047.28;5088966;27;45449;-70
2023/04/10 09:16:48;;;;;;;;;8.00;6.00;;;;;19.25;35.70;101043.78;5061875;28;48489;-70
2023/04/10 09:19:28;;;;;;;;;6.50;6.00;;;;;19.25;36.10;101041.13;5079592;27;45415;-70
2023/04/10 09:21:54;;;;;;;;;4.00;4.00;;;;;19.24;35.60;101037.59;5068624;28;45343;-68
2023/04/10 09:24:19;;;;;;;;;6.75;5.00;;;;;19.25;35.71;101038.47;5070976;27;45662;-69
2023/04/10 09:26:45;;;;;;;;;7.00;7.00;;;;;19.25;35.58;101041.13;5083103;27;73795;-68
2023/04/10 09:29:11;;;;;;;;;6.00;5.00;;;;;19.28;35.53;101033.84;5063470;27;71272;-68
2023/04/10 09:31:37;;;;;;;;;6.25;5.25;;;;;19.25;35.79;101023.38;5085372;27;45246;-68
2023/04/10 09:34:12;;;;;;;;;8.50;6.00;;;;;19.29;35.77;101024.06;5064306;28;45600;-68
2023/04/10 09:36:42;;;;;;;;;6.00;4.75;;;;;19.28;35.69;101015.25;5068113;28;45656;-68
2023/04/10 09:39:11;;;;;;;;;5.00;4.00;;;;;19.20;36.15;101004.22;5067953;28;45272;-68
2023/04/10 09:41:54;;;;;;;;;4.25;4.25;;;;;19.26;35.97;101003.84;5087171;27;45661;-68
2023/04/10 09:44:30;;;;;;;;;5.50;4.00;;;;;19.28;35.82;101011.72;5071541;27;45261;-68
2023/04/10 09:46:56;;;;;;;;;9.50;5.25;;;;;19.26;36.00;100997.69;5068759;27;46447;-69
2023/04/10 09:49:21;;;;;;;;;5.75;5.25;;;;;19.27;35.76;101002.91;5071830;27;45497;-68
2023/04/10 09:51:48;;;;;;;;;3.50;3.00;;;;;19.26;35.99;101005.66;5051728;28;45332;-68
2023/04/10 09:54:14;;;;;;;;;5.50;4.25;;;;;19.25;35.79;100998.66;5058111;27;45425;-68
2023/04/10 09:56:40;;;;;;;;;4.00;4.00;;;;;19.27;35.86;100986.16;5064693;27;46952;-68
2023/04/10 09:59:06;;;;;;;;;6.75;4.75;;;;;19.27;35.57;100987.00;5065342;28;45801;-68
2023/04/10 10:01:33;;;;;;;;;6.75;5.00;;;;;19.29;35.72;100985.09;5053254;27;45462;-69
2023/04/10 10:04:02;;;;;;;;;6.25;4.25;;;;;19.25;35.75;100985.41;5075021;27;45264;-68
2023/04/10 10:06:30;;;;;;;;;3.50;3.50;;;;;19.30;35.38;100993.91;5071388;28;46800;-69
2023/04/10 10:08:56;;;;;;;;;5.00;3.50;;;;;19.22;35.92;100973.16;5063654;27;45359;-70
2023/04/10 10:11:23;;;;;;;;;5.50;4.50;;;;;19.30;36.01;100988.59;5070971;27;45395;-70
2023/04/10 10:13:53;;;;;;;;;4.25;4.25;;;;;19.29;35.93;100989.56;5062259;28;45443;-69
2023/04/10 10:16:33;;;;;;;;;6.25;6.25;;;;;19.28;36.19;100980.75;5056176;28;47186;-69
2023/04/10 10:19:28;;;;;;;;;5.75;4.50;;;;;19.29;36.05;100979.78;5067537;27;45506;-70
2023/04/10 10:21:54;;;;;;;;;4.25;4.00;;;;;19.25;35.84;100966.81;5075911;27;45360;-69
2023/04/10 10:24:21;;;;;;;;;5.75;4.75;;;;;19.29;35.79;100971.00;5065744;28;45422;-69
2023/04/10 10:26:48;;;;;;;;;4.50;4.00;;;;;19.28;35.88;100970.16;5069714;27;62259;-70
2023/04/10 10:29:16;;;;;;;;;4.50;4.00;;;;;19.29;35.98;100955.91;5065430;28;45440;-69
2023/04/10 10:31:41;;;;;;;;;3.25;3.25;;;;;19.30;35.90;100956.75;5067139;27;45209;-69
2023/04/10 10:34:08;;;;;;;;;5.00;5.00;;;;;19.31;35.79;100966.44;5077592;28;45281;-69
2023/04/10 10:36:38;;;;;;;;;4.75;4.75;;;;;19.29;35.87;100965.69;5062896;28;45281;-69
2023/04/10 10:39:13;;;;;;;;;5.25;4.00;;;;;19.31;35.84;100964.63;5058447;28;45481;-69
2023/04/10 10:41:45;;;;;;;;;4.75;3.75;;;;;19.30;36.09;100957.63;5081367;27;45284;-69
2023/04/10 10:44:15;;;;;;;;;6.00;4.00;;;;;19.31;36.01;100954.00;5062917;28;45502;-69
2023/04/10 10:46:46;;;;;;;;;7.00;4.00;;;;;19.32;36.17;100937.16;5062768;28;45400;-70
2023/04/10 10:49:12;;;;;;;;;2.00;2.00;;;;;19.31;35.99;100939.91;5070369;27;45969;-69
2023/04/10 10:51:45;;;;;;;;;5.00;3.00;;;;;19.31;35.88;100938.09;5063240;27;45485;-69
2023/04/10 10:54:26;;;;;;;;;5.25;4.00;;;;;19.32;36.00;100941.63;5062857;28;45435;-70
2023/04/10 10:56:52;;;;;;;;;5.00;4.25;;;;;19.30;36.00;100939.06;5068697;27;47115;-69
2023/04/10 10:59:17;;;;;;;;;7.00;5.00;;;;;19.32;35.91;100938.97;5087263;27;69022;-69
2023/04/10 11:02:12;;;;;;;;;4.75;4.25;;;;;19.32;36.16;100931.00;5067767;27;68786;-69
2023/04/10 11:04:45;;;;;;;;;5.00;4.00;;;;;19.31;35.94;100927.47;5061368;28;45550;-69
2023/04/10 11:07:11;;;;;;;;;7.25;4.00;;;;;19.30;35.79;100931.09;5062701;28;45294;-69
2023/04/10 11:09:52;;;;;;;;;3.00;3.00;;;;;19.32;35.99;100939.81;5051246;27;46001;-69
2023/04/10 11:12:22;;;;;;;;;4.00;4.00;;;;;19.30;35.66;100932.88;5068849;28;45309;-69
2023/04/10 11:15:01;;;;;;;;;5.00;4.00;;;;;19.33;36.25;100941.50;5072206;27;45437;-69
2023/04/10 11:17:49;;;;;;;;;5.00;5.00;;;;;19.31;35.99;100930.13;5069448;27;46286;-69
2023/04/10 11:20:16;;;;;;;;;5.00;4.00;;;;;19.30;36.02;100923.13;5079378;27;45904;-69
2023/04/10 11:23:13;;;;;;;;;5.25;4.00;;;;;19.31;35.94;100926.63;5082123;27;45495;-69
2023/04/10 11:25:51;;;;;;;;;5.00;4.00;;;;;19.32;35.94;100921.25;5074487;27;45637;-69